SWA1384 KDEN-KCOS
Flight info
| Callsign | SWA1384 |
|---|---|
| Flight time | 0h 15m |
| Altitude | 11000 |
| Route | LUFSE V389 ADANE BRK |
| Aircraft | B737/M-SDE2E3FGHIRWXY/LB1 |
Departure
| Time | 2026-04-22 13:46 |
|---|---|
| Airport | Denver International Airport (KDEN) |
Arrival
| Time | 2026-04-22 14:01 |
|---|---|
| Airport | City of Colorado Springs Municipal Airport (KCOS) |
| Time | Latitude | Longitude | Altitude | Speed | Heading |
|---|---|---|---|---|---|
| 2026-04-22 13:11 | 39.86260 | -104.67205 | 5365 ft | 0 kts | 359° |
| 2026-04-22 13:30 | 39.86259 | -104.67204 | 5362 ft | 2 kts | 359° |
| 2026-04-22 13:31 | 39.86233 | -104.67204 | 5364 ft | 4 kts | 359° |
| 2026-04-22 13:31 | 39.86211 | -104.67203 | 5363 ft | 3 kts | 360° |
| 2026-04-22 13:31 | 39.86192 | -104.67210 | 5362 ft | 4 kts | 71° |
| 2026-04-22 13:31 | 39.86190 | -104.67242 | 5363 ft | 4 kts | 89° |
| 2026-04-22 13:32 | 39.86190 | -104.67250 | 5364 ft | 0 kts | 89° |
| 2026-04-22 13:36 | 39.86190 | -104.67248 | 5364 ft | 1 kts | 89° |
| 2026-04-22 13:36 | 39.86190 | -104.67225 | 5362 ft | 4 kts | 89° |
| 2026-04-22 13:37 | 39.86190 | -104.67184 | 5362 ft | 5 kts | 89° |
| 2026-04-22 13:37 | 39.86190 | -104.67125 | 5364 ft | 8 kts | 92° |
| 2026-04-22 13:37 | 39.86166 | -104.67043 | 5362 ft | 11 kts | 126° |
| 2026-04-22 13:37 | 39.86131 | -104.66941 | 5365 ft | 14 kts | 91° |
| 2026-04-22 13:38 | 39.86130 | -104.66818 | 5365 ft | 13 kts | 89° |
| 2026-04-22 13:38 | 39.86127 | -104.66570 | 5365 ft | 15 kts | 95° |
| 2026-04-22 13:38 | 39.86115 | -104.66441 | 5365 ft | 14 kts | 100° |
| 2026-04-22 13:39 | 39.86106 | -104.66335 | 5365 ft | 10 kts | 91° |
| 2026-04-22 13:39 | 39.86115 | -104.66250 | 5365 ft | 10 kts | 69° |
| 2026-04-22 13:39 | 39.86199 | -104.66228 | 5364 ft | 16 kts | 0° |
| 2026-04-22 13:39 | 39.86335 | -104.66226 | 5363 ft | 22 kts | 0° |
| 2026-04-22 13:40 | 39.86473 | -104.66223 | 5364 ft | 14 kts | 6° |
| 2026-04-22 13:40 | 39.86502 | -104.66119 | 5364 ft | 13 kts | 91° |
| 2026-04-22 13:40 | 39.86501 | -104.65992 | 5364 ft | 14 kts | 91° |
| 2026-04-22 13:40 | 39.86500 | -104.65865 | 5365 ft | 14 kts | 90° |
| 2026-04-22 13:41 | 39.86500 | -104.65744 | 5365 ft | 13 kts | 90° |
| 2026-04-22 13:41 | 39.86500 | -104.65628 | 5365 ft | 13 kts | 90° |
| 2026-04-22 13:41 | 39.86499 | -104.65494 | 5365 ft | 17 kts | 90° |
| 2026-04-22 13:41 | 39.86498 | -104.65342 | 5365 ft | 17 kts | 90° |
| 2026-04-22 13:42 | 39.86496 | -104.65173 | 5365 ft | 20 kts | 91° |
| 2026-04-22 13:42 | 39.86494 | -104.64992 | 5365 ft | 20 kts | 91° |
| 2026-04-22 13:42 | 39.86492 | -104.64816 | 5365 ft | 19 kts | 91° |
| 2026-04-22 13:42 | 39.86490 | -104.64646 | 5365 ft | 18 kts | 91° |
| 2026-04-22 13:43 | 39.86489 | -104.64482 | 5365 ft | 18 kts | 89° |
| 2026-04-22 13:43 | 39.86489 | -104.64326 | 5365 ft | 14 kts | 90° |
| 2026-04-22 13:43 | 39.86489 | -104.64278 | 5365 ft | 0 kts | 90° |
| 2026-04-22 13:44 | 39.86489 | -104.64275 | 5365 ft | 2 kts | 90° |
| 2026-04-22 13:44 | 39.86488 | -104.64244 | 5365 ft | 4 kts | 90° |
| 2026-04-22 13:44 | 39.86488 | -104.64200 | 5365 ft | 8 kts | 90° |
| 2026-04-22 13:44 | 39.86487 | -104.64157 | 5364 ft | 4 kts | 99° |
| 2026-04-22 13:45 | 39.86456 | -104.64129 | 5365 ft | 8 kts | 171° |
| 2026-04-22 13:45 | 39.86287 | -104.64127 | 5365 ft | 60 kts | 180° |
| 2026-04-22 13:45 | 39.85600 | -104.64139 | 5367 ft | 135 kts | 180° |
| 2026-04-22 13:45 | 39.84463 | -104.64138 | 5517 ft | 183 kts | 181° |
| 2026-04-22 13:46 | 39.83163 | -104.64075 | 6417 ft | 188 kts | 180° |
| 2026-04-22 13:46 | 39.81841 | -104.63969 | 7172 ft | 199 kts | 180° |
| 2026-04-22 13:46 | 39.80430 | -104.63819 | 7905 ft | 204 kts | 179° |
| 2026-04-22 13:46 | 39.78976 | -104.63381 | 8395 ft | 233 kts | 162° |
| 2026-04-22 13:47 | 39.77384 | -104.62519 | 8739 ft | 259 kts | 161° |
| 2026-04-22 13:47 | 39.75677 | -104.61617 | 9421 ft | 271 kts | 162° |
| 2026-04-22 13:47 | 39.73843 | -104.60698 | 10006 ft | 291 kts | 163° |
| 2026-04-22 13:47 | 39.71896 | -104.59769 | 10640 ft | 309 kts | 164° |
| 2026-04-22 13:48 | 39.69784 | -104.58803 | 10970 ft | 335 kts | 164° |
| 2026-04-22 13:48 | 39.67477 | -104.57782 | 10989 ft | 361 kts | 165° |
| 2026-04-22 13:48 | 39.65082 | -104.56740 | 10959 ft | 365 kts | 165° |
| 2026-04-22 13:48 | 39.62675 | -104.55704 | 10937 ft | 364 kts | 165° |
| 2026-04-22 13:49 | 39.60268 | -104.54679 | 10928 ft | 364 kts | 165° |
| 2026-04-22 13:49 | 39.57855 | -104.53659 | 10906 ft | 365 kts | 165° |
| 2026-04-22 13:49 | 39.55439 | -104.52642 | 10910 ft | 365 kts | 165° |
| 2026-04-22 13:49 | 39.53030 | -104.51632 | 10893 ft | 364 kts | 166° |
| 2026-04-22 13:50 | 39.51410 | -104.51131 | 10877 ft | 360 kts | 176° |
| 2026-04-22 13:50 | 39.48115 | -104.51209 | 10897 ft | 352 kts | 192° |
| 2026-04-22 13:50 | 39.45745 | -104.51928 | 10898 ft | 349 kts | 199° |
| 2026-04-22 13:50 | 39.43412 | -104.52816 | 10893 ft | 349 kts | 199° |
| 2026-04-22 13:51 | 39.41092 | -104.53714 | 10884 ft | 349 kts | 199° |
| 2026-04-22 13:51 | 39.38768 | -104.54610 | 10877 ft | 348 kts | 199° |
| 2026-04-22 13:51 | 39.36440 | -104.55500 | 10836 ft | 348 kts | 199° |
| 2026-04-22 13:51 | 39.34112 | -104.56384 | 10840 ft | 349 kts | 199° |
| 2026-04-22 13:52 | 39.31781 | -104.57265 | 10838 ft | 349 kts | 199° |
| 2026-04-22 13:52 | 39.29473 | -104.58133 | 10838 ft | 340 kts | 199° |
| 2026-04-22 13:52 | 39.27262 | -104.58960 | 10847 ft | 320 kts | 199° |
| 2026-04-22 13:52 | 39.25191 | -104.59732 | 10872 ft | 300 kts | 199° |
| 2026-04-22 13:53 | 39.23241 | -104.60460 | 10888 ft | 285 kts | 199° |
| 2026-04-22 13:53 | 39.21347 | -104.61170 | 10919 ft | 282 kts | 199° |
| 2026-04-22 13:53 | 39.19484 | -104.61870 | 10950 ft | 283 kts | 199° |
| 2026-04-22 13:53 | 39.17595 | -104.62579 | 10967 ft | 282 kts | 199° |
| 2026-04-22 13:54 | 39.15744 | -104.63270 | 10968 ft | 270 kts | 199° |
| 2026-04-22 13:54 | 39.13993 | -104.63922 | 10981 ft | 255 kts | 199° |
| 2026-04-22 13:54 | 39.12322 | -104.64545 | 10933 ft | 247 kts | 199° |
| 2026-04-22 13:54 | 39.10684 | -104.65158 | 10902 ft | 244 kts | 199° |
| 2026-04-22 13:55 | 39.09051 | -104.65770 | 10846 ft | 244 kts | 199° |
| 2026-04-22 13:55 | 39.07440 | -104.66371 | 10726 ft | 237 kts | 199° |
| 2026-04-22 13:55 | 39.05898 | -104.66945 | 10659 ft | 224 kts | 199° |
| 2026-04-22 13:55 | 39.04437 | -104.67488 | 10479 ft | 214 kts | 199° |
| 2026-04-22 13:56 | 39.03025 | -104.68013 | 10242 ft | 208 kts | 199° |
| 2026-04-22 13:56 | 39.01643 | -104.68483 | 9995 ft | 205 kts | 190° |
| 2026-04-22 13:56 | 39.00221 | -104.68575 | 9817 ft | 205 kts | 183° |
| 2026-04-22 13:56 | 38.98797 | -104.68559 | 9553 ft | 204 kts | 182° |
| 2026-04-22 13:57 | 38.97406 | -104.68549 | 9294 ft | 195 kts | 182° |
| 2026-04-22 13:57 | 38.96060 | -104.68548 | 9037 ft | 193 kts | 182° |
| 2026-04-22 13:57 | 38.94756 | -104.68549 | 8786 ft | 181 kts | 182° |
| 2026-04-22 13:57 | 38.93548 | -104.68551 | 8553 ft | 168 kts | 183° |
| 2026-04-22 13:58 | 38.92404 | -104.68553 | 8338 ft | 162 kts | 182° |
| 2026-04-22 13:58 | 38.91273 | -104.68556 | 8132 ft | 163 kts | 182° |
| 2026-04-22 13:58 | 38.90146 | -104.68559 | 7926 ft | 163 kts | 182° |
| 2026-04-22 13:58 | 38.89009 | -104.68561 | 7764 ft | 162 kts | 181° |
| 2026-04-22 13:59 | 38.87906 | -104.68563 | 7602 ft | 155 kts | 180° |
| 2026-04-22 13:59 | 38.86846 | -104.68563 | 7287 ft | 149 kts | 182° |
| 2026-04-22 13:59 | 38.85822 | -104.68566 | 7107 ft | 146 kts | 182° |
| 2026-04-22 13:59 | 38.84797 | -104.68568 | 6945 ft | 149 kts | 181° |
| 2026-04-22 14:00 | 38.83760 | -104.68570 | 6737 ft | 148 kts | 180° |
| 2026-04-22 14:00 | 38.82739 | -104.68574 | 6474 ft | 145 kts | 181° |
| 2026-04-22 14:00 | 38.82071 | -104.68575 | 6320 ft | 145 kts | 180° |
| 2026-04-22 14:00 | 38.80807 | -104.68580 | 6191 ft | 122 kts | 179° |
| 2026-04-22 14:01 | 38.80108 | -104.68576 | 6196 ft | 79 kts | 179° |
| 2026-04-22 14:01 | 38.79686 | -104.68578 | 6193 ft | 51 kts | 179° |
| 2026-04-22 14:01 | 38.79351 | -104.68582 | 6191 ft | 45 kts | 186° |
| 2026-04-22 14:01 | 38.79202 | -104.68656 | 6191 ft | 22 kts | 208° |
| 2026-04-22 14:02 | 38.79131 | -104.68707 | 6192 ft | 0 kts | 220° |
| 2026-04-22 14:02 | 38.79125 | -104.68716 | 6192 ft | 2 kts | 236° |
| 2026-04-22 14:02 | 38.79124 | -104.68739 | 6193 ft | 5 kts | 278° |
| 2026-04-22 14:03 | 38.79167 | -104.68788 | 6193 ft | 11 kts | 355° |
| 2026-04-22 14:03 | 38.79240 | -104.68788 | 6192 ft | 11 kts | 359° |
| 2026-04-22 14:03 | 38.79313 | -104.68788 | 6192 ft | 10 kts | 359° |
| 2026-04-22 14:03 | 38.79402 | -104.68789 | 6192 ft | 16 kts | 359° |
| 2026-04-22 14:04 | 38.79537 | -104.68790 | 6192 ft | 22 kts | 0° |
| 2026-04-22 14:04 | 38.79701 | -104.68788 | 6192 ft | 24 kts | 0° |
| 2026-04-22 14:04 | 38.79868 | -104.68788 | 6193 ft | 23 kts | 0° |
| 2026-04-22 14:04 | 38.80027 | -104.68787 | 6193 ft | 22 kts | 0° |
| 2026-04-22 14:05 | 38.80171 | -104.68786 | 6192 ft | 20 kts | 0° |
| 2026-04-22 14:05 | 38.80265 | -104.68804 | 6193 ft | 12 kts | 319° |
| 2026-04-22 14:05 | 38.80278 | -104.69017 | 6193 ft | 15 kts | 271° |
| 2026-04-22 14:06 | 38.80280 | -104.69175 | 6193 ft | 20 kts | 270° |
| 2026-04-22 14:06 | 38.80281 | -104.69348 | 6193 ft | 19 kts | 270° |
| 2026-04-22 14:06 | 38.80281 | -104.69515 | 6193 ft | 18 kts | 270° |
| 2026-04-22 14:06 | 38.80278 | -104.69668 | 6193 ft | 16 kts | 264° |
| 2026-04-22 14:07 | 38.80204 | -104.69725 | 6193 ft | 14 kts | 180° |
| 2026-04-22 14:07 | 38.80112 | -104.69727 | 6193 ft | 13 kts | 184° |
| 2026-04-22 14:07 | 38.80041 | -104.69789 | 6193 ft | 13 kts | 223° |
| 2026-04-22 14:07 | 38.79962 | -104.69836 | 6193 ft | 12 kts | 202° |
| 2026-04-22 14:08 | 38.79886 | -104.69885 | 6192 ft | 12 kts | 212° |
| 2026-04-22 14:08 | 38.79848 | -104.69952 | 6193 ft | 5 kts | 264° |
| 2026-04-22 14:08 | 38.79847 | -104.69995 | 6193 ft | 5 kts | 268° |
| 2026-04-22 14:08 | 38.79846 | -104.70021 | 6193 ft | 2 kts | 268° |
| 2026-04-22 14:09 | 38.79846 | -104.70023 | 6193 ft | 0 kts | 268° |